Time;durP1;ratioP1;P1;durP2;ratioP2;P2;SDS_P1;SDS_P2;PMS_P1;PMS_P2;Temp;Humidity;BMP_temperature;BMP_pressure;BME280_temperature;BME280_humidity;BME280_pressure;Samples;Min_cycle;Max_cycle;Signal;HPM_P1;HPM_P2
2021/03/16 00:02:12;;;;;;;;;;;;;;;12.54;32.09;100146.91;4921267;29;19919;-83
2021/03/16 00:05:05;;;;;;;;;;;;;;;12.64;29.98;100142.91;4921633;29;19915;-82
2021/03/16 00:07:50;;;;;;;;;;;;;;;12.68;30.23;100146.53;4932786;29;20402;-82
2021/03/16 00:10:35;;;;;;;;;;;;;;;12.44;29.57;100158.28;4908984;29;19914;-82
2021/03/16 00:13:19;;;;;;;;;;;;;;;12.41;29.69;100158.94;4922423;29;19919;-83
2021/03/16 00:16:03;;;;;;;;;;;;;;;12.34;28.74;100156.00;4925079;29;19923;-82
2021/03/16 00:18:48;;;;;;;;;;;;;;;12.40;28.39;100157.34;4942697;29;19915;-82
2021/03/16 00:21:34;;;;;;;;;;;;;;;12.62;27.88;100167.00;4940689;29;20294;-82
2021/03/16 00:24:18;;;;;;;;;;;;;;;12.32;30.46;100166.44;4945598;29;19914;-82
2021/03/16 00:27:03;;;;;;;;;;;;;;;11.89;32.92;100165.00;4943528;29;19919;-82
2021/03/16 00:29:47;;;;;;;;;;;;;;;11.76;34.62;100168.84;4941308;29;20423;-81
2021/03/16 00:32:32;;;;;;;;;;;;;;;11.65;35.49;100161.41;4942683;29;19915;-82
2021/03/16 00:35:17;;;;;;;;;;;;;;;11.64;35.30;100163.31;4943273;29;19918;-83
2021/03/16 00:38:02;;;;;;;;;;;;;;;11.86;35.63;100157.53;4940115;29;19915;-83
2021/03/16 00:40:47;;;;;;;;;;;;;;;11.65;33.21;100148.56;4944825;29;19914;-83
2021/03/16 00:43:32;;;;;;;;;;;;;;;11.68;33.71;100158.00;4942341;29;19914;-83
2021/03/16 00:46:16;;;;;;;;;;;;;;;11.70;33.39;100156.53;4944010;29;19915;-83
2021/03/16 00:49:02;;;;;;;;;;;;;;;11.56;33.51;100170.44;4931302;29;19915;-83
2021/03/16 00:51:46;;;;;;;;;;;;;;;11.46;32.13;100172.78;4939512;29;19914;-83
2021/03/16 00:54:31;;;;;;;;;;;;;;;11.46;33.42;100189.13;4932550;29;19919;-81
2021/03/16 00:57:15;;;;;;;;;;;;;;;11.19;34.77;100192.38;4910558;29;19915;-83
2021/03/16 01:00:00;;;;;;;;;;;;;;;11.44;33.71;100191.38;4923547;29;19914;-82
2021/03/16 01:02:44;;;;;;;;;;;;;;;11.34;34.70;100197.22;4894504;29;20319;-82
2021/03/16 01:05:29;;;;;;;;;;;;;;;11.33;36.79;100203.78;4925677;29;20387;-82
2021/03/16 01:08:14;;;;;;;;;;;;;;;11.44;36.84;100219.41;4923905;29;19915;-82
2021/03/16 01:11:00;;;;;;;;;;;;;;;10.84;37.12;100227.97;4921584;29;19915;-83
2021/03/16 01:13:45;;;;;;;;;;;;;;;10.82;38.20;100232.16;4919965;29;20391;-82
2021/03/16 01:16:30;;;;;;;;;;;;;;;11.05;40.08;100228.81;4923868;29;19919;-83
2021/03/16 01:19:14;;;;;;;;;;;;;;;10.83;39.59;100220.94;4921668;29;19915;-83
2021/03/16 01:21:58;;;;;;;;;;;;;;;11.08;39.46;100224.63;4920073;29;20295;-83
2021/03/16 01:24:43;;;;;;;;;;;;;;;10.93;39.57;100219.75;4924226;29;19919;-83
2021/03/16 01:27:27;;;;;;;;;;;;;;;11.00;40.20;100228.22;4921583;29;19919;-83
2021/03/16 01:30:13;;;;;;;;;;;;;;;10.71;40.31;100224.38;4926087;29;19919;-83
2021/03/16 01:32:58;;;;;;;;;;;;;;;10.50;40.65;100237.13;4920913;29;20299;-82
2021/03/16 01:35:42;;;;;;;;;;;;;;;10.55;40.34;100236.13;4929687;29;19919;-82
2021/03/16 01:38:28;;;;;;;;;;;;;;;10.78;40.86;100223.84;4945597;29;19914;-83
2021/03/16 01:41:12;;;;;;;;;;;;;;;10.81;41.46;100231.38;4948468;29;19918;-82
2021/03/16 01:43:57;;;;;;;;;;;;;;;10.67;39.97;100228.06;4947977;29;19923;-83
2021/03/16 01:46:44;;;;;;;;;;;;;;;10.60;38.61;100220.44;4943397;29;19914;-82
2021/03/16 01:49:29;;;;;;;;;;;;;;;10.59;39.78;100242.50;4949400;29;19915;-83
2021/03/16 01:52:15;;;;;;;;;;;;;;;10.53;41.10;100239.16;4930863;29;19915;-82
2021/03/16 01:55:00;;;;;;;;;;;;;;;10.33;40.18;100244.53;4940948;29;19919;-82
2021/03/16 01:57:46;;;;;;;;;;;;;;;10.48;40.57;100238.56;4935172;29;19915;-82
2021/03/16 02:00:50;;;;;;;;;;;;;;;10.27;41.29;100239.25;4942824;29;19914;-81
2021/03/16 02:03:53;;;;;;;;;;;;;;;10.22;40.59;100249.50;4942417;29;19914;-82
2021/03/16 02:07:21;;;;;;;;;;;;;;;10.18;41.80;100254.00;4923256;29;19915;-82
2021/03/16 02:10:28;;;;;;;;;;;;;;;10.16;41.03;100251.59;4923399;29;19915;-83
2021/03/16 02:13:32;;;;;;;;;;;;;;;10.01;40.46;100260.22;4922934;29;19915;-82
2021/03/16 02:16:37;;;;;;;;;;;;;;;9.77;40.56;100260.75;4923178;29;20375;-83
2021/03/16 02:20:00;;;;;;;;;;;;;;;9.77;42.13;100259.94;4923386;29;19915;-82
2021/03/16 02:23:05;;;;;;;;;;;;;;;9.93;40.02;100258.34;4923207;29;19915;-83
2021/03/16 02:26:19;;;;;;;;;;;;;;;9.98;39.06;100260.06;4936862;29;19914;-83
2021/03/16 02:29:42;;;;;;;;;;;;;;;9.87;37.83;100254.19;4926591;29;19915;-83
2021/03/16 02:32:47;;;;;;;;;;;;;;;9.94;39.93;100254.50;4941294;29;19915;-82
2021/03/16 02:35:51;;;;;;;;;;;;;;;9.98;39.61;100249.22;4925359;29;19919;-83
2021/03/16 02:38:55;;;;;;;;;;;;;;;9.98;36.88;100239.16;4923607;29;19915;-82
2021/03/16 02:42:01;;;;;;;;;;;;;;;9.98;34.52;100244.59;4923114;29;19915;-81
2021/03/16 02:45:08;;;;;;;;;;;;;;;9.88;37.09;100242.22;4930288;29;19915;-82
2021/03/16 02:48:11;;;;;;;;;;;;;;;10.07;38.56;100253.50;4940403;29;19914;-82
2021/03/16 02:51:15;;;;;;;;;;;;;;;10.04;35.57;100248.72;4942101;29;19915;-83
2021/03/16 02:54:20;;;;;;;;;;;;;;;9.89;34.75;100251.97;4941899;29;19915;-82
2021/03/16 02:57:23;;;;;;;;;;;;;;;9.80;37.25;100253.88;4922776;29;19923;-83
2021/03/16 03:00:29;;;;;;;;;;;;;;;9.71;36.66;100262.03;4922850;29;19915;-82
2021/03/16 03:03:34;;;;;;;;;;;;;;;9.69;37.11;100264.28;4922455;29;19915;-82
2021/03/16 03:06:39;;;;;;;;;;;;;;;9.54;38.96;100263.94;4922191;29;19915;-82
2021/03/16 03:09:44;;;;;;;;;;;;;;;9.64;39.77;100266.34;4923211;29;19915;-83
2021/03/16 03:12:47;;;;;;;;;;;;;;;9.69;40.94;100277.03;4932869;29;20287;-83
2021/03/16 03:15:51;;;;;;;;;;;;;;;9.42;42.00;100270.00;4942939;29;19919;-84
2021/03/16 03:18:55;;;;;;;;;;;;;;;9.37;42.83;100273.66;4940881;29;20386;-82
2021/03/16 03:22:11;;;;;;;;;;;;;;;9.44;43.33;100265.06;4941702;29;19918;-83
2021/03/16 03:25:19;;;;;;;;;;;;;;;9.41;44.31;100269.19;4942448;29;19915;-82
2021/03/16 03:28:31;;;;;;;;;;;;;;;9.50;46.26;100271.91;4942504;29;19922;-82
2021/03/16 03:31:35;;;;;;;;;;;;;;;9.20;45.52;100275.53;4941715;29;19914;-81
2021/03/16 03:34:39;;;;;;;;;;;;;;;9.15;46.20;100273.78;4939889;29;19914;-82
2021/03/16 03:37:44;;;;;;;;;;;;;;;8.76;46.11;100268.44;4940310;29;19914;-82
2021/03/16 03:40:49;;;;;;;;;;;;;;;8.84;45.66;100270.34;4934249;29;19923;-82
2021/03/16 03:43:52;;;;;;;;;;;;;;;9.01;43.74;100278.53;4929628;29;19915;-83
2021/03/16 03:46:56;;;;;;;;;;;;;;;8.89;43.31;100289.19;4939913;29;19915;-81
2021/03/16 03:50:01;;;;;;;;;;;;;;;8.65;46.49;100284.16;4939495;29;19919;-81
2021/03/16 03:53:05;;;;;;;;;;;;;;;8.45;47.24;100299.06;4939831;29;19914;-85
2021/03/16 03:56:08;;;;;;;;;;;;;;;8.35;47.96;100302.03;4920505;29;19919;-82
2021/03/16 03:59:13;;;;;;;;;;;;;;;8.69;48.92;100306.81;4919915;29;19934;-82
2021/03/16 04:02:16;;;;;;;;;;;;;;;8.64;49.08;100306.94;4918161;29;19915;-82
2021/03/16 04:05:20;;;;;;;;;;;;;;;8.74;48.40;100295.84;4933666;29;19914;-81
2021/03/16 04:08:23;;;;;;;;;;;;;;;8.36;48.74;100298.22;4938631;29;19918;-82
2021/03/16 04:11:26;;;;;;;;;;;;;;;8.24;49.09;100316.91;4939100;29;19915;-82
2021/03/16 04:14:32;;;;;;;;;;;;;;;8.39;49.40;100316.56;4938759;29;19914;-82
2021/03/16 04:17:36;;;;;;;;;;;;;;;8.23;48.26;100320.72;4938487;29;19919;-82
2021/03/16 04:20:40;;;;;;;;;;;;;;;8.27;47.65;100320.91;4938669;29;19915;-82
2021/03/16 04:23:44;;;;;;;;;;;;;;;8.26;46.60;100320.13;4936663;29;19919;-82
2021/03/16 04:26:47;;;;;;;;;;;;;;;7.92;45.13;100323.41;4938698;29;19915;-82
2021/03/16 04:29:51;;;;;;;;;;;;;;;7.96;46.66;100323.56;4939083;29;19915;-82
2021/03/16 04:32:54;;;;;;;;;;;;;;;7.88;43.84;100325.09;4938289;29;19915;-81
2021/03/16 04:35:58;;;;;;;;;;;;;;;8.04;43.66;100329.03;4938657;29;20298;-81
2021/03/16 04:39:03;;;;;;;;;;;;;;;8.33;42.15;100327.84;4936033;29;19914;-81
2021/03/16 04:42:07;;;;;;;;;;;;;;;8.23;43.67;100334.25;4919928;29;19915;-82
2021/03/16 04:45:11;;;;;;;;;;;;;;;8.12;41.98;100354.59;4919496;29;19915;-82
2021/03/16 04:48:14;;;;;;;;;;;;;;;7.89;43.54;100344.84;4919280;29;19919;-82
2021/03/16 04:51:19;;;;;;;;;;;;;;;8.13;44.02;100369.72;4936093;29;19914;-82
2021/03/16 04:54:22;;;;;;;;;;;;;;;8.11;47.07;100369.25;4936779;29;19914;-81
2021/03/16 04:57:25;;;;;;;;;;;;;;;8.16;47.44;100369.94;4918698;29;19919;-82
2021/03/16 05:00:29;;;;;;;;;;;;;;;8.33;47.57;100366.53;4926999;29;19914;-81
2021/03/16 05:03:32;;;;;;;;;;;;;;;8.25;48.53;100377.31;4938564;29;19915;-82
2021/03/16 05:06:36;;;;;;;;;;;;;;;8.00;48.21;100384.13;4938115;29;20324;-81
2021/03/16 05:09:39;;;;;;;;;;;;;;;8.00;47.92;100389.53;4937679;29;19915;-82
2021/03/16 05:12:42;;;;;;;;;;;;;;;7.59;47.35;100398.56;4939494;23;19924;-78
2021/03/16 05:15:46;;;;;;;;;;;;;;;7.60;48.59;100400.16;4896840;29;19923;-77
2021/03/16 05:18:49;;;;;;;;;;;;;;;7.57;46.95;100400.75;4898978;29;19916;-78
2021/03/16 05:21:53;;;;;;;;;;;;;;;7.60;48.45;100391.25;4898863;29;19915;-78
2021/03/16 05:24:57;;;;;;;;;;;;;;;7.52;49.11;100400.84;4898077;29;19915;-79
2021/03/16 05:28:00;;;;;;;;;;;;;;;7.45;49.44;100410.50;4916693;29;20452;-81
2021/03/16 05:31:04;;;;;;;;;;;;;;;7.44;49.96;100406.97;4916810;29;19915;-80
2021/03/16 05:34:07;;;;;;;;;;;;;;;7.66;49.31;100415.19;4916128;29;19915;-79
2021/03/16 05:37:11;;;;;;;;;;;;;;;7.92;49.27;100422.75;4900857;29;19919;-80
2021/03/16 05:40:14;;;;;;;;;;;;;;;7.90;48.26;100424.97;4900028;29;20310;-80
2021/03/16 05:43:18;;;;;;;;;;;;;;;7.82;47.09;100434.63;4911797;29;19915;-79
2021/03/16 05:46:22;;;;;;;;;;;;;;;7.85;47.90;100436.69;4901138;29;19916;-80
2021/03/16 05:49:25;;;;;;;;;;;;;;;8.05;48.46;100443.56;4905618;29;19919;-81
2021/03/16 05:52:29;;;;;;;;;;;;;;;7.94;46.79;100443.00;4910204;29;19923;-81
2021/03/16 05:55:33;;;;;;;;;;;;;;;7.99;46.36;100450.19;4906586;29;19927;-82
2021/03/16 05:58:37;;;;;;;;;;;;;;;8.30;44.92;100448.44;4904591;29;20553;-81
2021/03/16 06:01:41;;;;;;;;;;;;;;;12.09;35.87;100451.47;4909139;29;19915;-79
2021/03/16 06:04:45;;;;;;;;;;;;;;;14.53;30.71;100452.25;4916786;29;19915;-79
2021/03/16 06:07:49;;;;;;;;;;;;;;;17.49;27.03;100469.53;4913796;29;19915;-79
2021/03/16 06:10:53;;;;;;;;;;;;;;;15.41;26.37;100444.78;4909714;29;19915;-77
2021/03/16 06:13:57;;;;;;;;;;;;;;;16.77;24.62;100449.41;4905299;29;19915;-80
2021/03/16 06:17:00;;;;;;;;;;;;;;;14.63;27.25;100450.19;4897739;29;19920;-79
2021/03/16 06:20:04;;;;;;;;;;;;;;;15.10;25.97;100451.06;4904110;29;19915;-78
2021/03/16 06:23:09;;;;;;;;;;;;;;;17.56;22.37;100461.44;4915962;29;19915;-81
2021/03/16 06:26:13;;;;;;;;;;;;;;;18.20;21.05;100463.19;4915598;29;19919;-77
2021/03/16 06:29:16;;;;;;;;;;;;;;;21.05;18.06;100472.63;4917048;29;19919;-77
2021/03/16 06:32:19;;;;;;;;;;;;;;;20.39;18.46;100472.00;4918128;29;19915;-77
2021/03/16 06:35:23;;;;;;;;;;;;;;;20.51;17.16;100484.69;4916945;29;19915;-77
2021/03/16 06:38:28;;;;;;;;;;;;;;;19.54;18.38;100483.25;4918795;29;19914;-78
2021/03/16 06:41:36;;;;;;;;;;;;;;;19.08;19.29;100495.78;4918516;29;19915;-78
2021/03/16 06:44:39;;;;;;;;;;;;;;;19.82;20.86;100495.66;4919527;29;20291;-80
2021/03/16 06:47:43;;;;;;;;;;;;;;;18.15;22.55;100502.03;4919931;29;19915;-78
2021/03/16 06:50:47;;;;;;;;;;;;;;;19.34;21.81;100509.44;4919487;29;19915;-78
2021/03/16 06:53:50;;;;;;;;;;;;;;;20.26;18.39;100512.94;4918731;29;19915;-79
2021/03/16 06:56:54;;;;;;;;;;;;;;;20.59;17.54;100519.44;4918969;29;20328;-79
2021/03/16 07:00:04;;;;;;;;;;;;;;;15.36;23.71;100514.34;4918783;29;19915;-80
2021/03/16 07:03:12;;;;;;;;;;;;;;;12.80;27.00;100512.94;4918817;29;19915;-78
2021/03/16 07:06:18;;;;;;;;;;;;;;;11.77;29.32;100527.28;4918614;29;19926;-78
2021/03/16 07:09:22;;;;;;;;;;;;;;;11.18;30.37;100522.78;4918786;29;19915;-79
2021/03/16 07:12:32;;;;;;;;;;;;;;;10.84;29.52;100526.38;4918666;29;19915;-78
2021/03/16 07:15:37;;;;;;;;;;;;;;;10.79;30.35;100535.50;4918316;29;19923;-78
2021/03/16 07:18:43;;;;;;;;;;;;;;;11.17;30.01;100538.34;4918233;29;19915;-78
2021/03/16 07:21:46;;;;;;;;;;;;;;;11.29;30.39;100548.56;4918208;29;19918;-78
2021/03/16 07:24:50;;;;;;;;;;;;;;;11.85;31.38;100545.50;4918474;29;19915;-77
2021/03/16 07:27:53;;;;;;;;;;;;;;;12.36;29.07;100549.88;4918148;29;20001;-78
2021/03/16 07:30:57;;;;;;;;;;;;;;;12.85;30.15;100561.06;4918453;29;19915;-77
2021/03/16 07:34:05;;;;;;;;;;;;;;;13.07;29.19;100565.38;4918030;29;19915;-77
2021/03/16 07:37:09;;;;;;;;;;;;;;;13.20;25.81;100565.13;4913089;29;19919;-78
2021/03/16 07:40:14;;;;;;;;;;;;;;;13.36;26.88;100561.75;4918057;29;19915;-77
2021/03/16 07:43:18;;;;;;;;;;;;;;;13.62;25.07;100571.25;4917840;29;20383;-78
2021/03/16 07:46:21;;;;;;;;;;;;;;;13.53;23.92;100570.56;4917871;29;20367;-77
2021/03/16 07:49:31;;;;;;;;;;;;;;;13.83;24.33;100570.38;4917606;29;19915;-78
2021/03/16 07:52:45;;;;;;;;;;;;;;;13.80;24.22;100580.06;4907065;29;20376;-78
2021/03/16 07:55:48;;;;;;;;;;;;;;;13.81;23.29;100575.41;4898176;29;19919;-78
2021/03/16 07:58:52;;;;;;;;;;;;;;;13.84;22.90;100582.91;4898548;29;19923;-78
2021/03/16 08:01:55;;;;;;;;;;;;;;;14.02;24.02;100587.00;4898384;29;19915;-78
2021/03/16 08:04:58;;;;;;;;;;;;;;;14.04;24.05;100584.72;4912230;29;20387;-77
2021/03/16 08:08:12;;;;;;;;;;;;;;;13.92;22.69;100587.44;4917273;29;20291;-79
2021/03/16 08:11:16;;;;;;;;;;;;;;;14.17;22.05;100591.78;4917217;29;19915;-79
2021/03/16 08:14:24;;;;;;;;;;;;;;;14.12;22.97;100589.28;4916859;29;19926;-82
2021/03/16 08:17:30;;;;;;;;;;;;;;;14.12;21.91;100592.81;4917265;29;19919;-81
2021/03/16 08:20:33;;;;;;;;;;;;;;;14.31;23.57;100592.25;4917245;29;19923;-80
2021/03/16 08:23:38;;;;;;;;;;;;;;;14.10;20.32;100599.78;4916980;29;20295;-80
2021/03/16 08:26:49;;;;;;;;;;;;;;;14.20;20.46;100604.81;4917016;29;19915;-83
2021/03/16 08:29:52;;;;;;;;;;;;;;;13.91;18.86;100588.63;4916940;29;19919;-80
2021/03/16 08:32:56;;;;;;;;;;;;;;;13.96;19.66;100591.13;4917303;29;19915;-79
2021/03/16 08:35:59;;;;;;;;;;;;;;;14.04;19.83;100601.94;4919756;29;19923;-81
2021/03/16 08:39:03;;;;;;;;;;;;;;;14.02;19.41;100603.41;4920193;29;19915;-82
2021/03/16 08:42:07;;;;;;;;;;;;;;;13.90;17.94;100600.69;4920319;29;19918;-83
2021/03/16 08:45:10;;;;;;;;;;;;;;;13.96;18.28;100602.06;4920284;29;19915;-80
2021/03/16 08:48:23;;;;;;;;;;;;;;;14.02;18.48;100611.59;4920499;29;19915;-80
2021/03/16 08:51:28;;;;;;;;;;;;;;;13.89;17.98;100610.81;4918936;29;19919;-81
2021/03/16 08:54:33;;;;;;;;;;;;;;;13.94;18.04;100613.31;4919137;29;19915;-79
2021/03/16 08:57:36;;;;;;;;;;;;;;;13.93;17.95;100616.38;4925203;29;19923;-81
2021/03/16 09:00:40;;;;;;;;;;;;;;;14.01;18.60;100624.50;4918568;29;19915;-81
2021/03/16 09:03:43;;;;;;;;;;;;;;;14.14;18.47;100628.84;4916816;29;19915;-81
2021/03/16 09:06:49;;;;;;;;;;;;;;;14.48;20.83;100629.53;4913902;29;19919;-80
2021/03/16 09:10:12;;;;;;;;;;;;;;;14.32;18.78;100629.44;4918991;29;19915;-81
2021/03/16 09:13:27;;;;;;;;;;;;;;;14.41;19.00;100627.41;4919193;29;20280;-80
2021/03/16 09:16:31;;;;;;;;;;;;;;;14.45;17.50;100628.31;4920149;29;19919;-82
2021/03/16 09:19:35;;;;;;;;;;;;;;;14.59;18.35;100617.00;4919815;29;19915;-81
2021/03/16 09:22:38;;;;;;;;;;;;;;;14.73;16.28;100627.59;4919575;29;19915;-81
2021/03/16 09:25:43;;;;;;;;;;;;;;;14.64;16.03;100624.16;4919052;29;19915;-79
2021/03/16 09:28:46;;;;;;;;;;;;;;;14.41;15.54;100630.13;4918905;29;19910;-80
2021/03/16 09:31:52;;;;;;;;;;;;;;;14.51;15.48;100637.06;4918796;29;19915;-82
2021/03/16 09:34:56;;;;;;;;;;;;;;;14.71;16.55;100644.34;4918166;29;19915;-81
2021/03/16 09:38:03;;;;;;;;;;;;;;;14.77;17.65;100636.69;4917477;29;20402;-79
2021/03/16 09:41:09;;;;;;;;;;;;;;;15.01;16.79;100630.38;4917407;29;20299;-80
2021/03/16 09:43:56;;;;;;;;;;;;;;;15.06;16.94;100630.13;4918315;29;19915;-79
2021/03/16 09:46:47;;;;;;;;;;;;;;;15.07;15.13;100631.72;4918238;29;20291;-79
2021/03/16 09:49:41;;;;;;;;;;;;;;;15.10;16.98;100641.97;4921020;29;20287;-78
2021/03/16 09:52:26;;;;;;;;;;;;;;;14.98;17.79;100629.13;4918725;29;19915;-79
2021/03/16 09:55:11;;;;;;;;;;;;;;;15.21;15.86;100634.88;4917395;29;19915;-80
2021/03/16 09:57:56;;;;;;;;;;;;;;;15.04;15.81;100649.63;4920227;29;19919;-79
2021/03/16 10:00:46;;;;;;;;;;;;;;;15.21;16.82;100638.41;4922490;29;19914;-80
2021/03/16 10:03:31;;;;;;;;;;;;;;;15.04;17.01;100641.41;4917538;29;19919;-80
2021/03/16 10:06:16;;;;;;;;;;;;;;;14.91;17.22;100640.66;4925789;29;19915;-79
2021/03/16 10:09:01;;;;;;;;;;;;;;;15.28;16.93;100635.88;4923495;29;20330;-80
2021/03/16 10:11:46;;;;;;;;;;;;;;;15.18;14.68;100639.13;4921735;29;19915;-81
2021/03/16 10:14:31;;;;;;;;;;;;;;;15.44;21.25;100635.91;4927014;29;19915;-79
2021/03/16 10:17:22;;;;;;;;;;;;;;;15.14;17.35;100640.13;4922820;29;19919;-80
2021/03/16 10:20:07;;;;;;;;;;;;;;;14.93;17.30;100640.31;4906364;29;19919;-79
2021/03/16 10:22:54;;;;;;;;;;;;;;;14.96;17.60;100642.34;4923792;29;19915;-78
2021/03/16 10:25:38;;;;;;;;;;;;;;;14.94;16.58;100641.91;4921971;29;19914;-79
2021/03/16 10:28:42;;;;;;;;;;;;;;;14.82;15.00;100628.25;4920261;29;19915;-78
2021/03/16 10:31:27;;;;;;;;;;;;;;;14.78;15.50;100635.56;4923873;29;19918;-80
2021/03/16 10:34:13;;;;;;;;;;;;;;;14.69;16.10;100624.72;4905768;29;20332;-81
2021/03/16 10:36:57;;;;;;;;;;;;;;;14.98;15.72;100629.13;4925150;29;19919;-80
2021/03/16 10:39:41;;;;;;;;;;;;;;;15.14;16.30;100629.16;4924006;29;19915;-80
2021/03/16 10:42:29;;;;;;;;;;;;;;;15.37;16.23;100625.56;4920140;29;19919;-80
2021/03/16 10:45:14;;;;;;;;;;;;;;;15.55;16.32;100626.06;4927805;29;20380;-81
2021/03/16 10:47:58;;;;;;;;;;;;;;;15.93;18.07;100620.03;4926336;29;20371;-81
2021/03/16 10:50:43;;;;;;;;;;;;;;;16.08;15.80;100630.19;4924395;29;20383;-80
2021/03/16 10:53:27;;;;;;;;;;;;;;;16.14;14.55;100619.75;4921823;29;19919;-82
2021/03/16 10:56:12;;;;;;;;;;;;;;;16.39;17.08;100625.84;4925029;29;20323;-83
2021/03/16 10:58:56;;;;;;;;;;;;;;;17.04;16.82;100633.22;4923240;29;19915;-82
2021/03/16 11:01:41;;;;;;;;;;;;;;;21.65;13.91;100638.78;4906570;29;19915;-79
2021/03/16 11:04:27;;;;;;;;;;;;;;;27.01;8.08;100650.63;4904754;29;19915;-81
2021/03/16 11:07:11;;;;;;;;;;;;;;;31.87;5.59;100650.25;4903177;29;19915;-80
2021/03/16 11:09:56;;;;;;;;;;;;;;;32.66;4.70;100657.84;4900706;29;20295;-80
2021/03/16 11:12:40;;;;;;;;;;;;;;;34.78;3.41;100652.56;4905308;29;19915;-79
2021/03/16 11:15:25;;;;;;;;;;;;;;;36.26;3.65;100660.50;4947620;23;19923;-87
2021/03/16 11:18:10;;;;;;;;;;;;;;;33.50;3.85;100658.06;4921133;29;20376;-86
2021/03/16 11:20:54;;;;;;;;;;;;;;;33.13;3.10;100657.31;4926894;29;19923;-87
2021/03/16 11:23:40;;;;;;;;;;;;;;;33.88;4.37;100675.19;4924706;29;19915;-87
2021/03/16 11:26:26;;;;;;;;;;;;;;;34.39;3.51;100668.66;4938921;29;19915;-87
2021/03/16 11:29:11;;;;;;;;;;;;;;;34.75;3.67;100657.13;4930593;29;19914;-87
2021/03/16 11:31:56;;;;;;;;;;;;;;;37.28;1.84;100664.81;4945702;29;19914;-85
2021/03/16 11:35:01;;;;;;;;;;;;;;;40.06;0.38;100670.88;4958431;29;19915;-87
2021/03/16 11:38:04;;;;;;;;;;;;;;;37.27;2.25;100659.66;4959579;29;19918;-86
2021/03/16 11:41:08;;;;;;;;;;;;;;;36.46;1.58;100661.78;4958653;29;19914;-87
2021/03/16 11:44:12;;;;;;;;;;;;;;;36.16;2.11;100649.81;4959055;29;20611;-86
2021/03/16 11:47:17;;;;;;;;;;;;;;;34.43;3.61;100648.72;4959628;29;19915;-87
2021/03/16 11:50:21;;;;;;;;;;;;;;;35.11;2.59;100652.38;4960229;29;19914;-86
2021/03/16 11:53:24;;;;;;;;;;;;;;;34.08;3.26;100651.28;4960433;29;19914;-88
2021/03/16 11:56:27;;;;;;;;;;;;;;;35.56;2.89;100648.31;4938378;29;19918;-84
2021/03/16 11:59:31;;;;;;;;;;;;;;;36.03;2.55;100642.38;4961374;29;19914;-84
2021/03/16 12:02:34;;;;;;;;;;;;;;;34.17;2.75;100637.88;4961790;29;19915;-84
2021/03/16 12:05:38;;;;;;;;;;;;;;;34.67;2.49;100624.81;4960710;29;19918;-83
2021/03/16 12:08:41;;;;;;;;;;;;;;;35.38;2.37;100634.38;4961554;29;19922;-84
2021/03/16 12:11:45;;;;;;;;;;;;;;;36.56;1.53;100627.13;4962733;29;19914;-85
2021/03/16 12:14:48;;;;;;;;;;;;;;;34.31;2.50;100625.09;4961873;29;20314;-86
2021/03/16 12:17:51;;;;;;;;;;;;;;;35.48;3.62;100628.13;4957665;29;19918;-84
2021/03/16 12:20:57;;;;;;;;;;;;;;;36.53;2.42;100628.13;4947293;29;19914;-85
2021/03/16 12:24:01;;;;;;;;;;;;;;;34.81;3.13;100628.19;4959082;28;20302;-85
2021/03/16 12:27:04;;;;;;;;;;;;;;;37.01;1.91;100628.44;4961115;29;19914;-84
2021/03/16 12:30:10;;;;;;;;;;;;;;;35.64;2.96;100626.06;4932316;29;19918;-82
2021/03/16 12:33:15;;;;;;;;;;;;;;;34.61;2.83;100623.94;4935250;29;19915;-82
2021/03/16 12:36:20;;;;;;;;;;;;;;;33.66;3.50;100611.78;4942482;29;19919;-81
2021/03/16 12:39:23;;;;;;;;;;;;;;;33.67;3.56;100614.13;4943062;29;19915;-82
2021/03/16 12:42:27;;;;;;;;;;;;;;;33.27;4.22;100616.47;4934767;29;19923;-82
2021/03/16 12:45:30;;;;;;;;;;;;;;;34.58;3.59;100613.59;4935051;29;19918;-83
2021/03/16 12:48:33;;;;;;;;;;;;;;;33.79;3.09;100606.72;4933586;29;19915;-82
2021/03/16 12:51:37;;;;;;;;;;;;;;;33.49;3.09;100605.72;4933869;29;19915;-82
2021/03/16 12:54:41;;;;;;;;;;;;;;;34.16;3.32;100598.81;4934842;29;19915;-82
2021/03/16 12:57:44;;;;;;;;;;;;;;;34.84;2.71;100598.97;4936392;29;19919;-82
2021/03/16 13:00:48;;;;;;;;;;;;;;;33.34;3.96;100613.31;4934290;29;20282;-81
2021/03/16 13:03:52;;;;;;;;;;;;;;;34.71;3.53;100613.34;4931987;29;19915;-80
2021/03/16 13:06:55;;;;;;;;;;;;;;;36.07;2.00;100602.53;4928509;29;20375;-81
2021/03/16 13:09:59;;;;;;;;;;;;;;;33.44;2.92;100597.91;4929893;29;19914;-81
2021/03/16 13:13:02;;;;;;;;;;;;;;;34.55;4.14;100599.66;4930592;29;19915;-81
2021/03/16 13:16:07;;;;;;;;;;;;;;;33.92;3.59;100608.06;4932160;29;20371;-82
2021/03/16 13:19:10;;;;;;;;;;;;;;;33.62;4.42;100599.91;4933570;29;19923;-81
2021/03/16 13:22:14;;;;;;;;;;;;;;;34.35;5.29;100608.75;4929876;29;20383;-81
2021/03/16 13:25:18;;;;;;;;;;;;;;;31.44;4.18;100596.44;4930111;29;19915;-81
2021/03/16 13:28:21;;;;;;;;;;;;;;;33.54;3.01;100596.63;4929053;29;19915;-81
2021/03/16 13:31:25;;;;;;;;;;;;;;;31.12;3.50;100588.50;4933115;29;19919;-81
2021/03/16 13:34:29;;;;;;;;;;;;;;;32.04;5.18;100596.06;4933092;29;20378;-82
2021/03/16 13:37:33;;;;;;;;;;;;;;;33.05;3.07;100589.25;4937449;29;19918;-81
2021/03/16 13:40:36;;;;;;;;;;;;;;;32.90;4.04;100591.16;4935086;29;19915;-82
2021/03/16 13:43:41;;;;;;;;;;;;;;;33.07;3.21;100597.19;4937976;29;19914;-82
2021/03/16 13:46:44;;;;;;;;;;;;;;;34.25;2.76;100587.50;4937269;29;19914;-82
2021/03/16 13:49:49;;;;;;;;;;;;;;;33.35;3.13;100590.28;4937824;29;19915;-82
2021/03/16 13:52:53;;;;;;;;;;;;;;;32.86;4.52;100593.34;4935103;29;19915;-81
2021/03/16 13:55:56;;;;;;;;;;;;;;;33.82;2.82;100584.00;4935734;29;20291;-83
2021/03/16 13:58:59;;;;;;;;;;;;;;;34.22;3.04;100580.78;4937573;29;19919;-81
2021/03/16 14:02:03;;;;;;;;;;;;;;;32.26;4.10;100577.06;4936402;29;19915;-81
2021/03/16 14:05:07;;;;;;;;;;;;;;;30.36;5.65;100568.38;4937168;29;19915;-81
2021/03/16 14:08:11;;;;;;;;;;;;;;;30.81;4.48;100568.75;4937991;29;19915;-81
2021/03/16 14:11:14;;;;;;;;;;;;;;;30.00;3.75;100564.00;4936825;29;19914;-80
2021/03/16 14:14:18;;;;;;;;;;;;;;;23.74;10.12;100564.25;4934855;29;19914;-82
2021/03/16 14:17:23;;;;;;;;;;;;;;;28.73;5.86;100565.09;4937201;29;19919;-82
2021/03/16 14:20:28;;;;;;;;;;;;;;;22.46;9.79;100557.69;4938500;29;19915;-82
2021/03/16 14:23:32;;;;;;;;;;;;;;;25.39;10.35;100560.13;4939282;29;19923;-82
2021/03/16 14:26:35;;;;;;;;;;;;;;;26.92;6.07;100563.09;4938824;29;19915;-82
2021/03/16 14:29:38;;;;;;;;;;;;;;;26.18;5.69;100560.47;4936201;29;19915;-82
2021/03/16 14:32:42;;;;;;;;;;;;;;;26.63;6.47;100560.03;4943395;29;19915;-82
2021/03/16 14:35:45;;;;;;;;;;;;;;;26.50;7.98;100573.06;4937744;29;19915;-81
2021/03/16 14:38:49;;;;;;;;;;;;;;;24.97;6.76;100557.91;4938746;29;19919;-82
2021/03/16 14:41:52;;;;;;;;;;;;;;;22.04;10.03;100564.09;4934709;29;19927;-81
2021/03/16 14:44:56;;;;;;;;;;;;;;;21.70;10.33;100566.41;4938664;29;19915;-82
2021/03/16 14:47:59;;;;;;;;;;;;;;;21.18;9.73;100568.69;4937466;29;19915;-81
2021/03/16 14:51:03;;;;;;;;;;;;;;;21.13;12.12;100559.97;4937252;29;19915;-81
2021/03/16 14:54:06;;;;;;;;;;;;;;;20.34;11.59;100564.31;4936320;29;19918;-81
2021/03/16 14:57:09;;;;;;;;;;;;;;;19.85;13.02;100558.41;4938513;29;20335;-82
2021/03/16 15:00:13;;;;;;;;;;;;;;;19.84;13.69;100554.84;4936227;29;19915;-80
2021/03/16 15:03:16;;;;;;;;;;;;;;;19.79;10.50;100557.16;4931258;29;20355;-79
2021/03/16 15:06:23;;;;;;;;;;;;;;;18.96;12.86;100560.19;4934365;29;19918;-79
2021/03/16 15:09:27;;;;;;;;;;;;;;;19.14;11.39;100555.69;4940303;29;19915;-81
2021/03/16 15:12:30;;;;;;;;;;;;;;;18.91;10.41;100552.25;4933687;29;19918;-80
2021/03/16 15:15:34;;;;;;;;;;;;;;;18.74;13.42;100552.84;4933825;29;19915;-81
2021/03/16 15:18:38;;;;;;;;;;;;;;;18.39;11.56;100555.88;4933515;29;19919;-80
2021/03/16 15:21:41;;;;;;;;;;;;;;;18.44;10.72;100552.78;4933356;29;19918;-80
2021/03/16 15:24:44;;;;;;;;;;;;;;;18.65;11.01;100553.13;4931531;29;19915;-79
2021/03/16 15:27:48;;;;;;;;;;;;;;;18.75;12.17;100548.91;4931819;29;19915;-80